Time;durP1;ratioP1;P1;durP2;ratioP2;P2;SDS_P1;SDS_P2;PMS_P1;PMS_P2;Temp;Humidity;BMP_temperature;BMP_pressure;BME280_temperature;BME280_humidity;BME280_pressure;Samples;Min_cycle;Max_cycle;Signal;HPM_P1;HPM_P2
2023/01/29 00:01:29;;;;;;;18.63;11.35;;;2.50;99.90;;;;;;5031011;28;20021;-82
2023/01/29 00:03:54;;;;;;;17.13;10.65;;;2.50;99.90;;;;;;5031116;28;20064;-81
2023/01/29 00:06:22;;;;;;;18.85;11.48;;;2.50;99.90;;;;;;5031998;28;20057;-81
2023/01/29 00:08:47;;;;;;;17.98;10.80;;;2.50;99.90;;;;;;5030564;28;20026;-81
2023/01/29 00:11:13;;;;;;;17.13;10.98;;;2.50;99.90;;;;;;5031784;28;20018;-81
2023/01/29 00:13:42;;;;;;;15.77;10.15;;;2.40;99.90;;;;;;5030323;28;20079;-81
2023/01/29 00:16:08;;;;;;;15.23;9.88;;;2.50;99.90;;;;;;5030377;28;20026;-81
2023/01/29 00:18:40;;;;;;;17.55;11.43;;;2.50;99.90;;;;;;5030424;28;20490;-81
2023/01/29 00:21:10;;;;;;;16.45;10.07;;;2.50;99.90;;;;;;5032175;28;20013;-82
2023/01/29 00:23:36;;;;;;;16.95;10.25;;;2.40;99.90;;;;;;5030363;28;20060;-81
2023/01/29 00:26:02;;;;;;;15.88;10.23;;;2.50;99.90;;;;;;5031538;28;20018;-82
2023/01/29 00:28:27;;;;;;;15.50;10.55;;;2.40;99.90;;;;;;5031589;28;20033;-83
2023/01/29 00:30:53;;;;;;;16.90;10.63;;;2.40;99.90;;;;;;5030594;28;20439;-81
2023/01/29 00:33:18;;;;;;;16.85;10.10;;;2.40;99.90;;;;;;5030220;28;20285;-82
2023/01/29 00:35:44;;;;;;;15.10;10.25;;;2.40;99.90;;;;;;5031488;28;20017;-82
2023/01/29 00:38:09;;;;;;;16.73;10.88;;;2.40;99.90;;;;;;5030503;28;20040;-83
2023/01/29 00:46:09;;;;;;;19.13;11.02;;;2.40;99.90;;;;;;5029869;28;20026;-83
2023/01/29 00:48:35;;;;;;;18.15;11.20;;;2.40;99.90;;;;;;5029846;28;20566;-82
2023/01/29 00:51:02;;;;;;;17.80;11.73;;;2.30;99.90;;;;;;5029865;28;20104;-81
2023/01/29 00:53:28;;;;;;;17.33;10.60;;;2.30;99.90;;;;;;5031218;28;20017;-81
2023/01/29 00:55:54;;;;;;;17.27;11.90;;;2.30;99.90;;;;;;5029921;28;20484;-82
2023/01/29 00:58:21;;;;;;;18.10;11.38;;;2.30;99.90;;;;;;5032434;28;20026;-83
2023/01/29 01:00:50;;;;;;;16.67;10.77;;;2.30;99.90;;;;;;5034034;28;20036;-82
2023/01/29 01:03:16;;;;;;;15.85;10.30;;;2.20;99.90;;;;;;5033944;28;20043;-82
2023/01/29 01:05:42;;;;;;;16.30;10.10;;;2.30;99.90;;;;;;5033935;28;20048;-82
2023/01/29 01:11:05;;;;;;;17.08;10.93;;;2.20;99.90;;;;;;5035616;28;20040;-82
2023/01/29 01:13:31;;;;;;;18.60;10.50;;;2.20;99.90;;;;;;5031839;28;20476;-82
2023/01/29 01:15:57;;;;;;;16.67;10.75;;;2.20;99.90;;;;;;5035021;28;20029;-82
2023/01/29 01:18:23;;;;;;;15.90;10.00;;;2.20;99.90;;;;;;5033458;28;20029;-82
2023/01/29 01:20:51;;;;;;;20.70;11.15;;;2.20;99.90;;;;;;5033657;28;20010;-82
2023/01/29 01:23:18;;;;;;;17.42;11.23;;;2.20;99.90;;;;;;5033715;28;20176;-83
2023/01/29 01:25:44;;;;;;;16.88;10.80;;;2.20;99.90;;;;;;5032122;28;20208;-83
2023/01/29 01:28:09;;;;;;;15.98;10.07;;;2.20;99.90;;;;;;5033613;28;20647;-82
2023/01/29 01:30:35;;;;;;;16.42;9.50;;;2.20;99.90;;;;;;5033454;28;20069;-83
2023/01/29 01:33:01;;;;;;;15.82;10.77;;;2.20;99.90;;;;;;5033412;28;20017;-83
2023/01/29 01:35:27;;;;;;;18.02;10.95;;;2.10;99.90;;;;;;5034512;28;20416;-82
2023/01/29 01:37:52;;;;;;;18.55;11.38;;;2.10;99.90;;;;;;5033228;28;20034;-82
2023/01/29 01:40:23;;;;;;;19.08;11.20;;;2.20;99.90;;;;;;5034444;28;20030;-82
2023/01/29 01:42:51;;;;;;;19.83;12.10;;;2.10;99.90;;;;;;5033238;28;20108;-83
2023/01/29 01:45:37;;;;;;;20.73;12.68;;;2.10;99.90;;;;;;5033252;28;20018;-82
2023/01/29 01:48:10;;;;;;;20.33;12.20;;;2.10;99.90;;;;;;5032305;28;20049;-83
2023/01/29 01:51:02;;;;;;;19.45;12.18;;;2.00;99.90;;;;;;5033336;28;20013;-83
2023/01/29 01:53:38;;;;;;;21.98;13.02;;;2.00;99.90;;;;;;5032098;28;20021;-82
2023/01/29 01:56:10;;;;;;;19.92;12.35;;;2.00;99.90;;;;;;5031478;28;20017;-83
2023/01/29 01:58:42;;;;;;;20.42;13.30;;;2.00;99.90;;;;;;5032388;28;20053;-84
2023/01/29 02:01:08;;;;;;;19.05;12.00;;;1.90;99.90;;;;;;5033216;28;20014;-84
2023/01/29 02:09:30;;;;;;;19.95;11.75;;;1.80;99.90;;;;;;5032708;28;20056;-82
2023/01/29 02:11:55;;;;;;;18.13;11.90;;;1.90;99.90;;;;;;5033637;28;20104;-82
2023/01/29 02:14:21;;;;;;;17.02;10.57;;;1.90;99.90;;;;;;5032587;28;20463;-83
2023/01/29 02:16:47;;;;;;;18.73;11.25;;;1.90;99.90;;;;;;5032158;28;20125;-82
2023/01/29 02:19:44;;;;;;;17.38;10.15;;;1.90;99.90;;;;;;5032057;28;20013;-81
2023/01/29 02:22:35;;;;;;;16.45;10.27;;;1.90;99.90;;;;;;5002974;28;20542;-82
2023/01/29 02:25:28;;;;;;;19.52;11.13;;;1.90;99.90;;;;;;5032302;28;20096;-82
2023/01/29 02:28:35;;;;;;;19.70;12.00;;;1.90;99.90;;;;;;5030193;28;20109;-83
2023/01/29 02:31:03;;;;;;;21.05;11.65;;;1.90;99.90;;;;;;5030963;28;20025;-81
2023/01/29 02:33:38;;;;;;;17.55;11.05;;;1.90;99.90;;;;;;5027978;28;20021;-82
2023/01/29 02:36:24;;;;;;;21.27;12.82;;;1.90;99.90;;;;;;5031985;28;20029;-81
2023/01/29 02:38:59;;;;;;;18.52;11.25;;;1.90;99.90;;;;;;5029472;28;20495;-82
2023/01/29 02:41:27;;;;;;;20.95;13.15;;;1.90;99.90;;;;;;5031527;28;20018;-83
2023/01/29 02:44:05;;;;;;;21.40;13.77;;;1.90;99.90;;;;;;5032922;28;20076;-81
2023/01/29 02:46:36;;;;;;;21.98;12.93;;;1.90;99.90;;;;;;5032588;28;20030;-81
2023/01/29 02:49:13;;;;;;;19.08;11.88;;;1.80;99.90;;;;;;5032922;28;20026;-83
2023/01/29 02:51:50;;;;;;;21.77;13.10;;;1.80;99.90;;;;;;5032998;28;20575;-82
2023/01/29 02:54:20;;;;;;;21.65;12.82;;;1.80;99.90;;;;;;5033158;28;20575;-83
2023/01/29 02:56:58;;;;;;;20.58;12.75;;;1.80;99.90;;;;;;5034149;28;20030;-83
2023/01/29 02:59:36;;;;;;;19.40;12.10;;;1.80;99.90;;;;;;5032823;28;20029;-82
2023/01/29 03:02:12;;;;;;;22.48;12.85;;;1.80;99.90;;;;;;5033009;28;20079;-83
2023/01/29 03:04:45;;;;;;;19.38;12.40;;;1.80;99.90;;;;;;5034066;28;20538;-81
2023/01/29 03:10:38;;;;;;;19.75;12.13;;;1.80;99.90;;;;;;5033954;28;20091;-81
2023/01/29 03:13:14;;;;;;;18.48;11.23;;;1.80;99.90;;;;;;5028725;28;20041;-82
2023/01/29 03:16:00;;;;;;;19.83;12.13;;;1.80;99.90;;;;;;5032129;28;20651;-81
2023/01/29 03:18:30;;;;;;;21.33;11.88;;;1.80;99.90;;;;;;5031748;28;20033;-82
2023/01/29 03:32:19;;;;;;;21.05;13.07;;;1.90;99.90;;;;;;5032752;28;20091;-82
2023/01/29 03:34:53;;;;;;;19.30;11.80;;;1.90;99.90;;;;;;5031568;28;20033;-86
2023/01/29 03:37:21;;;;;;;;;;;1.90;99.90;;;;;;5032211;28;20100;-83
2023/01/29 03:39:47;;;;;;;20.83;12.93;;;1.80;99.90;;;;;;5032007;28;19959;-83
2023/01/29 03:42:41;;;;;;;20.55;12.63;;;1.80;99.90;;;;;;5033331;28;20029;-83
2023/01/29 03:45:24;;;;;;;22.70;13.88;;;1.80;99.90;;;;;;5032415;28;20032;-82
2023/01/29 03:47:59;;;;;;;22.45;13.60;;;1.80;99.90;;;;;;5033516;28;20049;-83
2023/01/29 03:50:57;;;;;;;22.42;14.18;;;1.80;99.90;;;;;;5033224;28;20475;-83
2023/01/29 03:53:47;;;;;;;23.25;14.52;;;1.80;99.90;;;;;;5031897;28;20031;-81
2023/01/29 03:56:20;;;;;;;22.17;13.55;;;1.80;99.90;;;;;;5032103;28;20021;-82
2023/01/29 03:59:11;;;;;;;22.58;13.80;;;1.80;99.90;;;;;;5032187;28;20398;-82
2023/01/29 04:01:52;;;;;;;25.23;14.10;;;1.80;99.90;;;;;;5033030;28;20064;-81
2023/01/29 04:04:24;;;;;;;24.48;15.55;;;1.80;99.90;;;;;;5033035;28;20479;-81
2023/01/29 04:06:52;;;;;;;21.73;13.65;;;1.80;99.90;;;;;;5033088;28;20534;-81
2023/01/29 04:09:30;;;;;;;21.05;13.43;;;1.80;99.90;;;;;;5033120;28;20074;-81
2023/01/29 04:12:19;;;;;;;20.77;12.27;;;1.80;99.90;;;;;;5033348;28;20096;-82
2023/01/29 04:14:47;;;;;;;20.85;12.63;;;1.80;99.90;;;;;;5033644;28;20025;-82
2023/01/29 04:17:22;;;;;;;20.88;12.73;;;1.90;99.90;;;;;;5031875;28;20049;-83
2023/01/29 04:19:48;;;;;;;24.08;14.05;;;1.80;99.90;;;;;;5033643;28;20472;-83
2023/01/29 04:22:35;;;;;;;25.30;15.85;;;1.90;99.90;;;;;;5032944;28;20025;-82
2023/01/29 04:25:07;;;;;;;24.00;14.95;;;1.90;99.90;;;;;;5033447;28;20052;-80
2023/01/29 04:27:51;;;;;;;25.85;15.00;;;1.90;99.90;;;;;;5050348;28;20081;-82
2023/01/29 04:30:52;;;;;;;26.80;16.50;;;1.90;99.90;;;;;;5054824;28;20089;-82
2023/01/29 04:33:28;;;;;;;27.55;16.05;;;1.90;99.90;;;;;;5021027;28;20028;-81
2023/01/29 04:36:17;;;;;;;25.70;15.27;;;1.90;99.90;;;;;;5043128;28;20403;-82
2023/01/29 04:39:00;;;;;;;27.55;16.38;;;1.80;99.90;;;;;;5032046;28;20030;-82
2023/01/29 04:41:55;;;;;;;26.48;15.40;;;1.80;99.90;;;;;;5033139;28;20025;-83
2023/01/29 04:44:41;;;;;;;26.63;16.58;;;1.80;99.90;;;;;;5031194;28;20037;-83
2023/01/29 04:47:27;;;;;;;29.35;17.85;;;1.80;99.90;;;;;;5031226;28;20052;-83
2023/01/29 04:50:05;;;;;;;26.35;15.93;;;1.80;99.90;;;;;;5030991;28;20017;-83
2023/01/29 04:52:45;;;;;;;22.38;13.43;;;1.80;99.90;;;;;;5032640;28;20053;-84
2023/01/29 04:55:20;;;;;;;24.25;14.35;;;1.80;99.90;;;;;;5031065;28;20025;-83
2023/01/29 04:58:04;;;;;;;24.45;14.25;;;1.80;99.90;;;;;;5030881;28;20038;-83
2023/01/29 05:00:34;;;;;;;23.38;14.48;;;1.80;99.90;;;;;;5030780;28;20124;-83
2023/01/29 05:03:01;;;;;;;24.45;15.45;;;1.80;99.90;;;;;;5032234;28;20484;-83
2023/01/29 05:05:28;;;;;;;23.55;14.43;;;1.80;99.90;;;;;;5032158;28;20024;-82
2023/01/29 05:07:55;;;;;;;23.65;14.35;;;1.80;99.90;;;;;;5031038;28;20028;-82
2023/01/29 05:10:23;;;;;;;21.80;13.10;;;1.90;99.90;;;;;;5030708;28;20029;-82
2023/01/29 05:13:02;;;;;;;24.27;15.15;;;1.80;99.90;;;;;;5030861;28;20021;-82
2023/01/29 05:15:40;;;;;;;25.88;14.57;;;1.90;99.90;;;;;;5031099;28;20072;-82
2023/01/29 05:18:07;;;;;;;23.50;13.43;;;1.90;99.90;;;;;;5031955;28;20037;-82
2023/01/29 05:20:36;;;;;;;25.10;15.48;;;1.90;99.90;;;;;;5032123;28;20021;-82
2023/01/29 05:23:02;;;;;;;27.77;16.17;;;1.90;99.90;;;;;;5030913;28;20515;-82
2023/01/29 05:25:31;;;;;;;24.98;15.35;;;1.90;99.90;;;;;;5031967;28;20025;-82
2023/01/29 05:28:10;;;;;;;24.50;14.32;;;2.00;99.90;;;;;;5031946;28;20057;-82
2023/01/29 05:30:38;;;;;;;25.08;14.70;;;1.90;99.90;;;;;;5030639;28;20079;-82
2023/01/29 05:33:10;;;;;;;22.10;12.50;;;2.00;99.90;;;;;;5030691;28;20535;-83
2023/01/29 05:35:36;;;;;;;17.30;10.45;;;2.00;99.90;;;;;;5030509;28;20036;-82
2023/01/29 05:38:01;;;;;;;22.00;13.52;;;2.00;99.90;;;;;;5031593;28;20042;-82
2023/01/29 05:40:27;;;;;;;22.90;13.75;;;2.00;99.90;;;;;;5030538;28;20023;-83
2023/01/29 05:42:53;;;;;;;23.70;15.00;;;2.00;99.90;;;;;;5030428;28;20483;-82
2023/01/29 05:45:18;;;;;;;23.55;14.10;;;2.00;99.90;;;;;;5032805;28;20095;-83
2023/01/29 05:47:45;;;;;;;21.58;12.95;;;2.10;99.90;;;;;;5033750;28;20053;-83
2023/01/29 05:50:11;;;;;;;23.48;14.30;;;2.10;99.90;;;;;;5034001;28;20032;-81
2023/01/29 05:52:36;;;;;;;23.35;14.32;;;2.10;99.90;;;;;;5033974;28;20525;-82
2023/01/29 05:55:03;;;;;;;21.83;13.95;;;2.10;99.90;;;;;;5035101;28;20021;-85
2023/01/29 05:57:28;;;;;;;25.92;15.25;;;2.10;99.90;;;;;;5033910;28;20035;-81
2023/01/29 05:59:54;;;;;;;22.23;14.10;;;2.10;99.90;;;;;;5034102;28;20028;-83
2023/01/29 06:02:20;;;;;;;21.83;13.70;;;2.10;99.90;;;;;;5035041;28;20038;-82
2023/01/29 06:04:45;;;;;;;25.42;15.73;;;2.10;99.90;;;;;;5033588;28;20108;-82
2023/01/29 06:07:11;;;;;;;28.85;17.17;;;2.10;99.90;;;;;;5033849;28;20032;-82
2023/01/29 06:09:36;;;;;;;27.40;16.98;;;2.10;99.90;;;;;;5033647;28;20032;-81
2023/01/29 06:12:05;;;;;;;29.55;18.42;;;2.10;99.90;;;;;;5034842;28;20080;-83
2023/01/29 06:14:30;;;;;;;29.63;19.17;;;2.10;99.90;;;;;;5034770;28;20048;-82
2023/01/29 06:16:56;;;;;;;30.80;19.17;;;2.10;99.90;;;;;;5033587;28;20041;-82
2023/01/29 06:19:21;;;;;;;31.13;19.05;;;2.10;99.90;;;;;;5033583;28;20021;-82
2023/01/29 06:21:47;;;;;;;29.58;19.35;;;2.10;99.90;;;;;;5034803;28;20026;-82
2023/01/29 06:24:13;;;;;;;28.10;17.80;;;2.10;99.90;;;;;;5034742;28;20060;-81
2023/01/29 06:26:38;;;;;;;30.48;19.33;;;2.10;99.90;;;;;;5034599;28;20087;-82
2023/01/29 06:29:04;;;;;;;30.23;18.67;;;2.20;99.90;;;;;;5033254;28;20021;-82
2023/01/29 06:31:31;;;;;;;29.40;18.63;;;2.10;99.90;;;;;;5034618;28;20025;-82
2023/01/29 06:33:56;;;;;;;27.40;16.63;;;2.10;99.90;;;;;;5033159;28;20025;-82
2023/01/29 06:36:22;;;;;;;28.05;17.83;;;2.10;99.90;;;;;;5033109;28;20036;-82
2023/01/29 06:38:48;;;;;;;28.90;17.42;;;2.10;99.90;;;;;;5033055;28;20079;-82
2023/01/29 06:41:17;;;;;;;29.02;18.13;;;2.10;99.90;;;;;;5033118;28;20475;-83
2023/01/29 06:43:46;;;;;;;31.08;19.45;;;2.20;99.90;;;;;;5033060;28;20044;-82
2023/01/29 06:46:12;;;;;;;32.28;19.42;;;2.10;99.90;;;;;;5032700;28;20471;-83
2023/01/29 06:48:38;;;;;;;33.33;19.02;;;2.20;99.90;;;;;;5032767;28;20049;-82
2023/01/29 06:51:06;;;;;;;26.48;17.13;;;2.10;99.90;;;;;;5033133;28;20024;-83
2023/01/29 06:53:33;;;;;;;26.85;17.73;;;2.10;99.90;;;;;;5032780;28;20026;-83
2023/01/29 06:55:58;;;;;;;31.67;18.05;;;2.10;99.90;;;;;;5034240;28;20022;-83
2023/01/29 06:58:24;;;;;;;26.52;16.25;;;2.10;99.90;;;;;;5032681;28;20040;-83
2023/01/29 07:00:50;;;;;;;29.15;17.85;;;2.10;99.90;;;;;;5032672;28;20026;-83
2023/01/29 07:03:16;;;;;;;25.08;15.63;;;2.10;99.90;;;;;;5032986;28;20022;-82
2023/01/29 07:05:51;;;;;;;22.05;13.50;;;2.10;99.90;;;;;;5032706;28;20494;-82
2023/01/29 07:08:17;;;;;;;26.52;15.63;;;2.20;99.90;;;;;;5033832;28;20035;-82
2023/01/29 07:10:43;;;;;;;24.30;14.93;;;2.20;99.90;;;;;;5032783;28;20109;-82
2023/01/29 07:13:08;;;;;;;29.02;17.75;;;2.20;99.90;;;;;;5032385;28;20387;-83
2023/01/29 07:15:34;;;;;;;26.42;15.40;;;2.20;99.90;;;;;;5032356;28;20545;-82
2023/01/29 07:18:02;;;;;;;26.35;15.25;;;2.20;99.90;;;;;;5033669;28;20542;-83
2023/01/29 07:20:29;;;;;;;23.50;14.65;;;2.20;99.90;;;;;;5032390;28;20452;-82
2023/01/29 07:22:56;;;;;;;25.90;15.85;;;2.20;99.90;;;;;;5033493;28;20383;-81
2023/01/29 07:25:22;;;;;;;25.65;15.90;;;2.20;99.90;;;;;;5031992;28;20143;-81
2023/01/29 07:27:48;;;;;;;27.13;15.82;;;2.20;99.90;;;;;;5032719;28;20458;-81
2023/01/29 07:30:14;;;;;;;24.35;14.27;;;2.20;99.90;;;;;;5033507;28;20034;-82
2023/01/29 07:32:40;;;;;;;29.60;17.95;;;2.20;99.90;;;;;;5033471;28;20361;-82
2023/01/29 07:35:06;;;;;;;32.28;17.80;;;2.30;99.90;;;;;;5032339;28;20021;-81
2023/01/29 07:37:31;;;;;;;28.85;17.08;;;2.20;99.90;;;;;;5031880;28;20512;-82
2023/01/29 07:39:57;;;;;;;28.33;17.75;;;2.30;99.90;;;;;;5032139;28;20025;-83
2023/01/29 07:42:23;;;;;;;31.05;18.58;;;2.30;99.90;;;;;;5031741;28;20037;-83
2023/01/29 07:44:48;;;;;;;29.85;18.55;;;2.30;99.90;;;;;;5032149;28;20026;-81
2023/01/29 07:47:14;;;;;;;27.15;17.70;;;2.30;99.90;;;;;;5031730;28;20423;-82
2023/01/29 07:49:39;;;;;;;30.15;18.60;;;2.30;99.90;;;;;;5031834;28;20028;-82
2023/01/29 07:52:05;;;;;;;28.63;18.02;;;2.30;99.90;;;;;;5031787;28;20025;-83
2023/01/29 07:54:30;;;;;;;31.27;18.02;;;2.30;99.90;;;;;;5031960;28;20022;-82
2023/01/29 07:56:56;;;;;;;30.10;18.55;;;2.40;99.90;;;;;;5033274;28;20427;-81
2023/01/29 07:59:22;;;;;;;32.17;18.52;;;2.40;99.90;;;;;;5031658;28;20026;-81
2023/01/29 08:01:47;;;;;;;32.97;20.02;;;2.40;99.90;;;;;;5031740;28;20044;-82
2023/01/29 08:04:13;;;;;;;31.25;19.15;;;2.40;99.90;;;;;;5031600;28;20026;-82
2023/01/29 08:06:39;;;;;;;33.92;21.27;;;2.40;99.90;;;;;;5032925;28;20490;-81
2023/01/29 08:09:05;;;;;;;35.83;21.63;;;2.40;99.90;;;;;;5031590;28;20030;-80
2023/01/29 08:11:30;;;;;;;36.40;23.17;;;2.40;99.90;;;;;;5034048;28;20025;-84
2023/01/29 08:13:56;;;;;;;37.10;23.67;;;2.40;99.90;;;;;;5033707;28;20032;-82
2023/01/29 08:16:22;;;;;;;39.10;23.17;;;2.40;99.90;;;;;;5031731;28;20083;-83
2023/01/29 08:18:47;;;;;;;36.08;23.52;;;2.40;99.90;;;;;;5033535;28;20152;-82
2023/01/29 08:21:13;;;;;;;34.50;21.00;;;2.50;99.90;;;;;;5032263;28;20060;-83
2023/01/29 08:23:39;;;;;;;33.72;20.30;;;2.50;99.90;;;;;;5032822;28;20021;-82
2023/01/29 08:26:04;;;;;;;30.85;19.92;;;2.50;99.90;;;;;;5032690;28;20026;-83
2023/01/29 08:28:30;;;;;;;31.33;20.13;;;2.50;99.90;;;;;;5031516;28;20116;-81
2023/01/29 08:30:56;;;;;;;34.45;21.10;;;2.60;99.90;;;;;;5032510;28;20055;-82
2023/01/29 08:33:22;;;;;;;33.95;21.38;;;2.60;99.90;;;;;;5032416;28;20387;-83
2023/01/29 08:35:48;;;;;;;30.85;19.10;;;2.60;99.90;;;;;;5032082;28;20072;-82
2023/01/29 08:38:14;;;;;;;29.83;18.98;;;2.70;99.90;;;;;;5031787;28;20128;-83
2023/01/29 08:40:39;;;;;;;28.83;18.63;;;2.70;99.90;;;;;;5031174;28;20124;-83
2023/01/29 08:43:07;;;;;;;31.02;19.58;;;2.70;99.90;;;;;;5034906;28;20034;-81
2023/01/29 08:45:34;;;;;;;28.85;17.75;;;2.70;99.90;;;;;;5051829;28;20035;-83
2023/01/29 08:48:00;;;;;;;27.80;18.33;;;2.80;99.90;;;;;;5051713;28;20087;-84
2023/01/29 08:50:26;;;;;;;29.10;18.80;;;2.80;99.90;;;;;;5038899;28;20025;-83
2023/01/29 08:52:56;;;;;;;30.63;19.77;;;2.80;99.90;;;;;;5030404;28;20083;-83
2023/01/29 08:55:22;;;;;;;30.77;19.50;;;2.90;99.90;;;;;;5030915;28;20487;-83
2023/01/29 08:57:47;;;;;;;31.45;19.17;;;2.90;99.90;;;;;;5028239;28;20030;-84
2023/01/29 09:00:14;;;;;;;31.48;21.15;;;2.90;99.90;;;;;;5028832;28;20076;-83
2023/01/29 09:02:39;;;;;;;31.73;21.13;;;3.00;99.90;;;;;;5028356;28;20032;-81
2023/01/29 09:05:06;;;;;;;33.47;20.42;;;3.00;99.90;;;;;;5028029;28;20017;-81
2023/01/29 09:07:32;;;;;;;31.23;19.92;;;3.00;99.90;;;;;;5029318;28;20480;-81
2023/01/29 09:09:57;;;;;;;33.55;21.20;;;3.00;99.90;;;;;;5029169;28;20109;-83
2023/01/29 09:12:23;;;;;;;30.45;20.30;;;3.00;99.90;;;;;;5028161;28;20136;-82
2023/01/29 09:14:48;;;;;;;30.27;20.30;;;3.10;99.90;;;;;;5027954;28;20071;-83
2023/01/29 09:17:14;;;;;;;29.00;19.88;;;3.10;99.90;;;;;;5028129;28;20475;-82
2023/01/29 09:19:39;;;;;;;34.55;21.85;;;3.10;99.90;;;;;;5030301;28;20783;-82
2023/01/29 09:22:05;;;;;;;27.50;16.83;;;3.10;99.90;;;;;;5032621;28;20380;-81
2023/01/29 09:24:31;;;;;;;31.50;19.80;;;3.10;99.90;;;;;;5033127;28;20340;-82
2023/01/29 09:26:57;;;;;;;29.25;17.58;;;3.20;99.90;;;;;;5033125;28;20026;-82
2023/01/29 09:29:23;;;;;;;30.17;20.10;;;3.20;99.90;;;;;;5032029;28;20029;-83
2023/01/29 09:31:48;;;;;;;27.92;17.08;;;3.20;99.90;;;;;;5031555;28;20487;-81
2023/01/29 09:34:14;;;;;;;28.08;18.20;;;3.20;99.90;;;;;;5032810;28;20057;-83
2023/01/29 09:36:39;;;;;;;30.50;19.02;;;3.20;99.90;;;;;;5031792;28;20116;-82
2023/01/29 09:39:05;;;;;;;30.55;19.70;;;3.20;99.90;;;;;;5031870;28;20064;-85
2023/01/29 09:42:06;;;;;;;31.88;20.60;;;3.30;99.90;;;;;;5032804;28;20029;-83
2023/01/29 09:44:50;;;;;;;25.83;17.70;;;3.30;99.90;;;;;;5028669;28;20041;-82
2023/01/29 09:47:17;;;;;;;28.13;18.05;;;3.30;99.90;;;;;;5031144;28;20053;-83
2023/01/29 09:49:51;;;;;;;26.17;17.50;;;3.30;99.90;;;;;;5031413;28;20041;-83
2023/01/29 09:52:21;;;;;;;27.20;18.25;;;3.30;99.90;;;;;;5031378;28;20056;-83
2023/01/29 09:55:20;;;;;;;29.58;21.20;;;3.40;99.90;;;;;;5032614;28;20079;-82
2023/01/29 09:57:48;;;;;;;31.15;21.27;;;3.40;99.90;;;;;;5031964;28;20128;-82
2023/01/29 10:00:42;;;;;;;27.08;17.30;;;3.40;99.90;;;;;;5032517;28;20029;-83
2023/01/29 10:03:29;;;;;;;27.42;18.20;;;3.30;99.90;;;;;;5031125;28;20053;-83
2023/01/29 10:06:32;;;;;;;26.70;17.95;;;3.40;99.90;;;;;;5032374;28;20057;-82
2023/01/29 10:09:32;;;;;;;26.83;18.20;;;3.40;99.90;;;;;;5030720;28;20033;-82
2023/01/29 10:12:10;;;;;;;27.70;18.95;;;3.40;99.90;;;;;;5031165;28;20030;-83
2023/01/29 10:14:55;;;;;;;23.15;16.05;;;3.40;99.90;;;;;;5031134;28;20037;-81
2023/01/29 10:17:50;;;;;;;24.45;16.77;;;3.40;99.90;;;;;;5031022;28;20037;-83
2023/01/29 10:20:50;;;;;;;24.98;16.80;;;3.50;99.90;;;;;;5032166;28;20102;-82
2023/01/29 10:23:29;;;;;;;26.45;17.13;;;3.60;99.90;;;;;;5030726;28;20529;-83
2023/01/29 10:25:55;;;;;;;22.67;15.90;;;3.60;99.90;;;;;;5032126;28;20216;-82
2023/01/29 10:28:41;;;;;;;26.98;17.20;;;3.60;99.90;;;;;;5031898;28;20638;-82
2023/01/29 10:31:23;;;;;;;23.45;15.82;;;3.60;99.90;;;;;;5031599;28;20107;-82
2023/01/29 10:34:22;;;;;;;25.17;16.50;;;3.60;99.90;;;;;;5030655;28;20021;-81
2023/01/29 10:36:49;;;;;;;28.27;18.38;;;3.70;99.90;;;;;;5030831;28;20092;-84
2023/01/29 10:39:25;;;;;;;26.63;17.92;;;3.60;99.90;;;;;;5030846;28;20022;-81
2023/01/29 10:41:54;;;;;;;30.60;20.13;;;3.70;99.90;;;;;;5030816;28;20112;-83
2023/01/29 10:44:45;;;;;;;27.48;18.55;;;3.70;99.90;;;;;;5030965;28;20021;-84
2023/01/29 10:47:25;;;;;;;25.77;17.40;;;3.60;99.90;;;;;;5031433;28;20155;-82
2023/01/29 10:50:11;;;;;;;25.95;17.63;;;3.60;99.90;;;;;;5031982;28;20129;-81
2023/01/29 10:52:52;;;;;;;26.58;17.25;;;3.60;99.90;;;;;;5030241;28;20080;-82
2023/01/29 10:55:36;;;;;;;25.50;17.27;;;3.70;99.90;;;;;;5032251;28;20522;-83
2023/01/29 10:58:26;;;;;;;26.42;18.80;;;3.70;99.90;;;;;;5029577;28;20041;-82
2023/01/29 11:00:52;;;;;;;22.85;16.90;;;3.70;99.90;;;;;;5031941;28;20025;-81
2023/01/29 11:03:22;;;;;;;25.00;17.35;;;3.70;99.90;;;;;;5030677;28;20036;-80
2023/01/29 11:06:13;;;;;;;26.98;18.20;;;3.70;99.90;;;;;;5028981;28;20025;-81
2023/01/29 11:09:12;;;;;;;28.00;19.38;;;3.70;99.90;;;;;;5030086;28;20053;-83
2023/01/29 11:12:01;;;;;;;28.10;19.08;;;3.70;99.90;;;;;;5030245;28;20092;-83
2023/01/29 11:14:36;;;;;;;28.77;19.30;;;3.70;99.90;;;;;;5030037;28;20027;-83
2023/01/29 11:17:03;;;;;;;24.42;17.95;;;3.70;99.90;;;;;;5031599;28;20084;-81
2023/01/29 11:19:42;;;;;;;24.60;17.58;;;3.80;99.90;;;;;;5029377;28;20045;-81
2023/01/29 11:22:14;;;;;;;25.92;17.33;;;3.80;99.90;;;;;;5027368;28;20018;-81
2023/01/29 11:24:39;;;;;;;22.20;15.90;;;3.80;99.90;;;;;;5029563;28;20017;-82
2023/01/29 11:27:16;;;;;;;25.40;17.33;;;3.80;99.90;;;;;;5029579;28;20029;-82
2023/01/29 11:29:46;;;;;;;25.90;18.20;;;3.90;99.90;;;;;;5028391;28;20026;-81
2023/01/29 11:32:23;;;;;;;26.13;17.50;;;3.90;99.90;;;;;;5028381;28;20027;-81
2023/01/29 11:35:00;;;;;;;25.08;18.00;;;3.90;99.90;;;;;;5029340;28;20033;-83
2023/01/29 11:37:44;;;;;;;24.60;16.35;;;3.90;99.90;;;;;;5029497;28;20049;-83
2023/01/29 11:40:19;;;;;;;22.38;15.77;;;4.00;99.90;;;;;;5030107;28;20040;-85
2023/01/29 11:42:49;;;;;;;22.98;17.08;;;4.00;99.90;;;;;;5028220;28;20028;-83
2023/01/29 11:45:26;;;;;;;21.02;16.40;;;4.10;99.90;;;;;;5029321;28;20628;-82
2023/01/29 11:47:54;;;;;;;25.48;17.88;;;4.10;99.90;;;;;;5029319;28;20073;-83
2023/01/29 11:50:23;;;;;;;24.33;17.92;;;4.10;99.90;;;;;;5030808;28;20116;-81
2023/01/29 11:52:49;;;;;;;26.10;18.88;;;4.20;99.90;;;;;;5029736;28;20482;-80
2023/01/29 11:55:22;;;;;;;25.48;18.52;;;4.10;99.90;;;;;;5030789;28;20021;-84
2023/01/29 11:57:59;;;;;;;24.15;17.23;;;4.20;99.90;;;;;;5029208;28;20072;-82
2023/01/29 12:00:28;;;;;;;25.58;17.92;;;4.20;99.90;;;;;;5030751;28;20035;-82
2023/01/29 12:03:28;;;;;;;26.08;19.48;;;4.20;99.90;;;;;;5029619;28;20056;-82
2023/01/29 12:06:15;;;;;;;26.63;18.00;;;4.20;99.90;;;;;;5028651;28;20116;-82
2023/01/29 12:08:40;;;;;;;25.58;19.42;;;4.20;99.90;;;;;;5009527;28;20516;-82
2023/01/29 12:11:10;;;;;;;26.98;19.58;;;4.20;99.90;;;;;;5009201;28;20034;-81
2023/01/29 12:13:35;;;;;;;24.15;18.48;;;4.20;99.90;;;;;;5011137;28;20108;-84
2023/01/29 12:16:17;;;;;;;28.75;20.55;;;4.20;99.90;;;;;;5009653;28;20117;-84
2023/01/29 12:18:55;;;;;;;27.50;20.08;;;4.30;99.90;;;;;;5012522;28;20049;-83
2023/01/29 12:21:32;;;;;;;28.08;20.00;;;4.30;99.90;;;;;;5041484;28;20013;-82
2023/01/29 12:24:09;;;;;;;28.05;19.92;;;4.20;99.90;;;;;;5029204;28;20029;-83
2023/01/29 12:26:37;;;;;;;27.13;19.50;;;4.20;99.90;;;;;;5014438;28;20089;-82
2023/01/29 12:29:36;;;;;;;27.30;19.48;;;4.20;99.90;;;;;;5028782;28;20446;-83
2023/01/29 12:32:31;;;;;;;31.30;21.15;;;4.30;99.90;;;;;;5030671;28;20053;-80
2023/01/29 12:35:15;;;;;;;31.92;22.60;;;4.30;99.90;;;;;;5015921;28;20035;-84
2023/01/29 12:37:59;;;;;;;;;;;4.20;99.90;;;;;;5030985;28;20041;-84
2023/01/29 12:40:50;;;;;;;32.83;22.13;;;4.20;99.90;;;;;;5030346;28;19949;-83
2023/01/29 12:43:18;;;;;;;30.10;21.00;;;4.20;99.90;;;;;;5029353;28;20020;-80
2023/01/29 12:45:49;;;;;;;32.08;22.85;;;4.10;99.90;;;;;;5029530;28;20029;-80
2023/01/29 12:48:22;;;;;;;28.98;21.75;;;4.20;99.90;;;;;;5031450;28;20113;-82
2023/01/29 12:50:49;;;;;;;29.00;21.25;;;4.20;99.90;;;;;;5018164;28;20014;-79
2023/01/29 12:53:33;;;;;;;28.23;20.60;;;4.20;99.90;;;;;;5040855;28;20049;-81
2023/01/29 12:56:06;;;;;;;31.48;21.73;;;4.20;99.90;;;;;;5048422;28;20025;-83
2023/01/29 12:58:46;;;;;;;31.92;22.23;;;4.30;99.90;;;;;;5038657;28;20045;-82
2023/01/29 13:01:35;;;;;;;31.45;22.50;;;4.30;99.90;;;;;;5028205;28;20029;-80
2023/01/29 13:04:15;;;;;;;32.90;23.67;;;4.30;99.90;;;;;;5038070;28;20113;-82
2023/01/29 13:06:55;;;;;;;34.22;23.90;;;4.20;99.90;;;;;;5022328;28;20033;-82
2023/01/29 13:09:26;;;;;;;33.33;22.67;;;4.20;99.90;;;;;;5030867;28;20052;-79
2023/01/29 13:12:01;;;;;;;31.48;22.17;;;4.20;99.90;;;;;;5031433;28;20033;-84
2023/01/29 13:14:42;;;;;;;33.00;21.23;;;4.30;99.90;;;;;;5032869;28;20033;-85
2023/01/29 13:17:26;;;;;;;36.90;25.02;;;4.30;99.90;;;;;;5033403;28;20145;-82
2023/01/29 13:19:56;;;;;;;34.00;24.23;;;4.20;99.90;;;;;;5032202;28;20482;-84
2023/01/29 13:22:30;;;;;;;33.72;24.65;;;4.20;99.90;;;;;;5031270;28;20036;-84
2023/01/29 13:24:56;;;;;;;30.95;22.52;;;4.20;99.90;;;;;;5033145;28;20029;-84
2023/01/29 13:27:28;;;;;;;32.60;22.98;;;4.20;99.90;;;;;;5032451;28;20017;-81
2023/01/29 13:29:55;;;;;;;33.47;23.35;;;4.20;99.90;;;;;;5032837;28;20061;-85
2023/01/29 13:32:25;;;;;;;32.83;22.65;;;4.20;99.90;;;;;;5032789;28;20076;-83
2023/01/29 13:34:54;;;;;;;32.00;22.73;;;4.20;99.90;;;;;;5030361;28;20014;-82